sensor_id;sensor_type;location;lat;lon;timestamp;P1;durP1;ratioP1;P2;durP2;ratioP2
4616;SDS011;2321;42.704;23.384;2023-04-25T00:00:49;644.17;;;356.33;;
4616;SDS011;2321;42.704;23.384;2023-04-25T00:03:18;652.30;;;378.70;;
4616;SDS011;2321;42.704;23.384;2023-04-25T00:05:46;627.67;;;354.47;;
4616;SDS011;2321;42.704;23.384;2023-04-25T00:08:13;765.27;;;393.40;;
4616;SDS011;2321;42.704;23.384;2023-04-25T00:10:40;849.60;;;393.90;;
4616;SDS011;2321;42.704;23.384;2023-04-25T00:13:06;892.30;;;382.30;;
4616;SDS011;2321;42.704;23.384;2023-04-25T00:15:33;788.93;;;383.23;;
4616;SDS011;2321;42.704;23.384;2023-04-25T00:18:01;817.10;;;399.70;;
4616;SDS011;2321;42.704;23.384;2023-04-25T00:20:29;855.60;;;417.23;;
4616;SDS011;2321;42.704;23.384;2023-04-25T00:22:56;941.03;;;369.10;;
4616;SDS011;2321;42.704;23.384;2023-04-25T00:25:23;836.20;;;415.93;;
4616;SDS011;2321;42.704;23.384;2023-04-25T00:27:50;807.80;;;357.00;;
4616;SDS011;2321;42.704;23.384;2023-04-25T00:30:16;908.33;;;353.80;;
4616;SDS011;2321;42.704;23.384;2023-04-25T00:32:43;806.07;;;357.27;;
4616;SDS011;2321;42.704;23.384;2023-04-25T00:35:11;820.10;;;393.83;;
4616;SDS011;2321;42.704;23.384;2023-04-25T00:37:39;830.47;;;359.07;;
4616;SDS011;2321;42.704;23.384;2023-04-25T00:40:06;912.40;;;414.87;;
4616;SDS011;2321;42.704;23.384;2023-04-25T00:42:34;761.67;;;348.10;;
4616;SDS011;2321;42.704;23.384;2023-04-25T00:45:01;752.47;;;340.97;;
4616;SDS011;2321;42.704;23.384;2023-04-25T00:47:32;784.07;;;354.33;;
4616;SDS011;2321;42.704;23.384;2023-04-25T00:49:59;790.23;;;349.80;;
4616;SDS011;2321;42.704;23.384;2023-04-25T00:52:26;834.23;;;375.87;;
4616;SDS011;2321;42.704;23.384;2023-04-25T00:54:54;834.57;;;362.23;;
4616;SDS011;2321;42.704;23.384;2023-04-25T00:57:21;853.07;;;376.73;;
4616;SDS011;2321;42.704;23.384;2023-04-25T00:59:48;884.33;;;380.57;;
4616;SDS011;2321;42.704;23.384;2023-04-25T01:02:18;991.87;;;424.67;;
4616;SDS011;2321;42.704;23.384;2023-04-25T01:04:45;845.97;;;435.63;;
4616;SDS011;2321;42.704;23.384;2023-04-25T01:07:13;919.93;;;380.73;;
4616;SDS011;2321;42.704;23.384;2023-04-25T01:09:40;956.57;;;377.33;;
4616;SDS011;2321;42.704;23.384;2023-04-25T01:12:09;925.60;;;387.97;;
4616;SDS011;2321;42.704;23.384;2023-04-25T01:14:36;823.73;;;356.70;;
4616;SDS011;2321;42.704;23.384;2023-04-25T01:17:02;807.77;;;380.90;;
4616;SDS011;2321;42.704;23.384;2023-04-25T01:19:30;877.77;;;347.57;;
4616;SDS011;2321;42.704;23.384;2023-04-25T01:21:58;976.63;;;399.00;;
4616;SDS011;2321;42.704;23.384;2023-04-25T01:24:25;905.93;;;340.83;;
4616;SDS011;2321;42.704;23.384;2023-04-25T01:26:52;915.57;;;353.30;;
4616;SDS011;2321;42.704;23.384;2023-04-25T01:29:21;826.63;;;347.33;;
4616;SDS011;2321;42.704;23.384;2023-04-25T01:31:49;899.83;;;380.67;;
4616;SDS011;2321;42.704;23.384;2023-04-25T01:34:17;864.43;;;347.73;;
4616;SDS011;2321;42.704;23.384;2023-04-25T01:36:44;918.30;;;403.80;;
4616;SDS011;2321;42.704;23.384;2023-04-25T01:39:13;966.27;;;362.63;;
4616;SDS011;2321;42.704;23.384;2023-04-25T01:41:41;827.33;;;343.97;;
4616;SDS011;2321;42.704;23.384;2023-04-25T01:44:08;827.23;;;345.77;;
4616;SDS011;2321;42.704;23.384;2023-04-25T01:46:35;880.87;;;427.47;;
4616;SDS011;2321;42.704;23.384;2023-04-25T01:49:02;947.40;;;381.43;;
4616;SDS011;2321;42.704;23.384;2023-04-25T01:51:30;956.37;;;363.17;;
4616;SDS011;2321;42.704;23.384;2023-04-25T01:53:57;907.97;;;384.47;;
4616;SDS011;2321;42.704;23.384;2023-04-25T01:56:29;819.60;;;319.47;;
4616;SDS011;2321;42.704;23.384;2023-04-25T01:58:57;837.17;;;353.90;;
4616;SDS011;2321;42.704;23.384;2023-04-25T02:01:24;912.53;;;369.40;;
4616;SDS011;2321;42.704;23.384;2023-04-25T02:03:51;906.97;;;391.63;;
4616;SDS011;2321;42.704;23.384;2023-04-25T02:06:17;992.63;;;408.80;;
4616;SDS011;2321;42.704;23.384;2023-04-25T02:08:44;850.70;;;351.03;;
4616;SDS011;2321;42.704;23.384;2023-04-25T02:11:11;851.37;;;347.47;;
4616;SDS011;2321;42.704;23.384;2023-04-25T02:13:39;879.63;;;348.33;;
4616;SDS011;2321;42.704;23.384;2023-04-25T02:16:06;916.20;;;375.37;;
4616;SDS011;2321;42.704;23.384;2023-04-25T02:18:33;914.93;;;338.47;;
4616;SDS011;2321;42.704;23.384;2023-04-25T02:21:02;891.53;;;329.17;;
4616;SDS011;2321;42.704;23.384;2023-04-25T02:23:29;909.20;;;344.20;;
4616;SDS011;2321;42.704;23.384;2023-04-25T02:25:56;933.00;;;377.20;;
4616;SDS011;2321;42.704;23.384;2023-04-25T02:28:23;910.63;;;337.67;;
4616;SDS011;2321;42.704;23.384;2023-04-25T02:30:52;959.93;;;373.77;;
4616;SDS011;2321;42.704;23.384;2023-04-25T02:33:19;971.03;;;368.13;;
4616;SDS011;2321;42.704;23.384;2023-04-25T02:35:46;976.13;;;363.40;;
4616;SDS011;2321;42.704;23.384;2023-04-25T02:38:13;969.90;;;372.57;;
4616;SDS011;2321;42.704;23.384;2023-04-25T02:40:40;1002.13;;;402.93;;
4616;SDS011;2321;42.704;23.384;2023-04-25T02:43:07;950.20;;;408.73;;
4616;SDS011;2321;42.704;23.384;2023-04-25T02:45:34;926.63;;;360.97;;
4616;SDS011;2321;42.704;23.384;2023-04-25T02:48:03;974.57;;;404.87;;
4616;SDS011;2321;42.704;23.384;2023-04-25T02:50:30;964.63;;;370.30;;
4616;SDS011;2321;42.704;23.384;2023-04-25T02:52:57;946.83;;;354.40;;
4616;SDS011;2321;42.704;23.384;2023-04-25T02:55:23;932.57;;;351.93;;
4616;SDS011;2321;42.704;23.384;2023-04-25T02:57:51;971.13;;;376.40;;
4616;SDS011;2321;42.704;23.384;2023-04-25T03:00:20;974.47;;;365.77;;
4616;SDS011;2321;42.704;23.384;2023-04-25T03:02:47;975.40;;;362.13;;
4616;SDS011;2321;42.704;23.384;2023-04-25T03:05:15;978.27;;;350.03;;
4616;SDS011;2321;42.704;23.384;2023-04-25T03:07:42;979.20;;;393.00;;
4616;SDS011;2321;42.704;23.384;2023-04-25T03:10:10;902.37;;;395.90;;
4616;SDS011;2321;42.704;23.384;2023-04-25T03:12:38;925.23;;;398.27;;
4616;SDS011;2321;42.704;23.384;2023-04-25T03:15:05;835.03;;;344.00;;
4616;SDS011;2321;42.704;23.384;2023-04-25T03:17:32;872.57;;;328.30;;
4616;SDS011;2321;42.704;23.384;2023-04-25T03:19:59;859.70;;;320.43;;
4616;SDS011;2321;42.704;23.384;2023-04-25T03:22:28;834.73;;;328.43;;
4616;SDS011;2321;42.704;23.384;2023-04-25T03:24:54;869.63;;;333.27;;
4616;SDS011;2321;42.704;23.384;2023-04-25T03:27:21;856.83;;;303.80;;
4616;SDS011;2321;42.704;23.384;2023-04-25T03:29:48;989.20;;;408.90;;
4616;SDS011;2321;42.704;23.384;2023-04-25T03:32:15;890.47;;;316.63;;
4616;SDS011;2321;42.704;23.384;2023-04-25T03:34:42;826.13;;;300.43;;
4616;SDS011;2321;42.704;23.384;2023-04-25T03:37:09;857.33;;;338.07;;
4616;SDS011;2321;42.704;23.384;2023-04-25T03:39:37;846.83;;;338.23;;
4616;SDS011;2321;42.704;23.384;2023-04-25T03:42:04;878.20;;;336.30;;
4616;SDS011;2321;42.704;23.384;2023-04-25T03:44:30;827.37;;;335.73;;
4616;SDS011;2321;42.704;23.384;2023-04-25T03:46:57;856.00;;;283.87;;
4616;SDS011;2321;42.704;23.384;2023-04-25T03:49:24;898.00;;;338.37;;
4616;SDS011;2321;42.704;23.384;2023-04-25T03:51:51;911.93;;;336.50;;
4616;SDS011;2321;42.704;23.384;2023-04-25T03:54:18;914.70;;;318.00;;
4616;SDS011;2321;42.704;23.384;2023-04-25T03:56:46;864.57;;;286.17;;
4616;SDS011;2321;42.704;23.384;2023-04-25T03:59:13;935.80;;;294.83;;
4616;SDS011;2321;42.704;23.384;2023-04-25T04:01:40;852.23;;;312.63;;
4616;SDS011;2321;42.704;23.384;2023-04-25T04:04:07;944.63;;;365.83;;
4616;SDS011;2321;42.704;23.384;2023-04-25T04:06:34;951.87;;;324.27;;
4616;SDS011;2321;42.704;23.384;2023-04-25T04:09:01;988.70;;;386.43;;
4616;SDS011;2321;42.704;23.384;2023-04-25T04:11:28;867.97;;;365.50;;
4616;SDS011;2321;42.704;23.384;2023-04-25T04:13:57;888.77;;;355.17;;
4616;SDS011;2321;42.704;23.384;2023-04-25T04:16:25;878.83;;;316.63;;
4616;SDS011;2321;42.704;23.384;2023-04-25T04:18:52;924.90;;;363.23;;
4616;SDS011;2321;42.704;23.384;2023-04-25T04:21:18;953.00;;;338.27;;
4616;SDS011;2321;42.704;23.384;2023-04-25T04:23:45;965.90;;;339.00;;
4616;SDS011;2321;42.704;23.384;2023-04-25T04:26:13;970.47;;;357.97;;
4616;SDS011;2321;42.704;23.384;2023-04-25T04:28:41;995.53;;;398.90;;
4616;SDS011;2321;42.704;23.384;2023-04-25T04:31:10;972.53;;;344.67;;
4616;SDS011;2321;42.704;23.384;2023-04-25T04:33:37;971.70;;;349.87;;
4616;SDS011;2321;42.704;23.384;2023-04-25T04:36:04;985.27;;;366.40;;
4616;SDS011;2321;42.704;23.384;2023-04-25T04:38:32;979.40;;;370.70;;
4616;SDS011;2321;42.704;23.384;2023-04-25T04:40:59;992.43;;;383.27;;
4616;SDS011;2321;42.704;23.384;2023-04-25T04:43:27;1010.17;;;442.03;;
4616;SDS011;2321;42.704;23.384;2023-04-25T04:45:54;971.13;;;364.93;;
4616;SDS011;2321;42.704;23.384;2023-04-25T04:48:23;982.87;;;376.37;;
4616;SDS011;2321;42.704;23.384;2023-04-25T04:50:50;984.10;;;393.57;;
4616;SDS011;2321;42.704;23.384;2023-04-25T04:53:17;990.60;;;406.90;;
4616;SDS011;2321;42.704;23.384;2023-04-25T04:55:44;977.03;;;378.70;;
4616;SDS011;2321;42.704;23.384;2023-04-25T04:58:11;996.43;;;401.63;;
4616;SDS011;2321;42.704;23.384;2023-04-25T05:00:38;982.00;;;369.60;;
4616;SDS011;2321;42.704;23.384;2023-04-25T05:03:05;992.43;;;388.10;;
4616;SDS011;2321;42.704;23.384;2023-04-25T05:05:33;983.70;;;379.80;;
4616;SDS011;2321;42.704;23.384;2023-04-25T05:08:00;965.23;;;376.07;;
4616;SDS011;2321;42.704;23.384;2023-04-25T05:10:27;973.27;;;363.43;;
4616;SDS011;2321;42.704;23.384;2023-04-25T05:12:54;934.70;;;384.37;;
4616;SDS011;2321;42.704;23.384;2023-04-25T05:15:20;992.60;;;424.07;;
4616;SDS011;2321;42.704;23.384;2023-04-25T05:17:47;990.33;;;389.00;;
4616;SDS011;2321;42.704;23.384;2023-04-25T05:20:14;983.97;;;373.87;;
4616;SDS011;2321;42.704;23.384;2023-04-25T05:22:42;1000.27;;;431.43;;
4616;SDS011;2321;42.704;23.384;2023-04-25T05:25:09;963.77;;;358.83;;
4616;SDS011;2321;42.704;23.384;2023-04-25T05:27:37;974.30;;;379.30;;
4616;SDS011;2321;42.704;23.384;2023-04-25T05:30:04;991.07;;;397.47;;
4616;SDS011;2321;42.704;23.384;2023-04-25T05:32:32;973.77;;;419.13;;
4616;SDS011;2321;42.704;23.384;2023-04-25T05:34:59;976.00;;;378.87;;
4616;SDS011;2321;42.704;23.384;2023-04-25T05:37:26;983.23;;;379.27;;
4616;SDS011;2321;42.704;23.384;2023-04-25T05:39:54;999.80;;;431.23;;
4616;SDS011;2321;42.704;23.384;2023-04-25T05:42:21;982.83;;;372.97;;
4616;SDS011;2321;42.704;23.384;2023-04-25T05:44:48;943.00;;;354.00;;
4616;SDS011;2321;42.704;23.384;2023-04-25T05:47:15;961.03;;;365.17;;
4616;SDS011;2321;42.704;23.384;2023-04-25T05:49:42;979.07;;;374.43;;
4616;SDS011;2321;42.704;23.384;2023-04-25T05:52:08;1006.87;;;426.63;;
4616;SDS011;2321;42.704;23.384;2023-04-25T05:54:35;939.60;;;368.23;;
4616;SDS011;2321;42.704;23.384;2023-04-25T05:57:03;988.77;;;382.43;;
4616;SDS011;2321;42.704;23.384;2023-04-25T05:59:31;1000.27;;;439.83;;
4616;SDS011;2321;42.704;23.384;2023-04-25T06:01:58;985.40;;;403.93;;
4616;SDS011;2321;42.704;23.384;2023-04-25T06:04:25;987.47;;;394.17;;
4616;SDS011;2321;42.704;23.384;2023-04-25T06:06:52;1009.97;;;433.43;;
4616;SDS011;2321;42.704;23.384;2023-04-25T06:09:19;999.73;;;409.63;;
4616;SDS011;2321;42.704;23.384;2023-04-25T06:11:46;996.93;;;415.77;;
4616;SDS011;2321;42.704;23.384;2023-04-25T06:14:14;1000.87;;;428.50;;
4616;SDS011;2321;42.704;23.384;2023-04-25T06:16:41;1016.07;;;457.97;;
4616;SDS011;2321;42.704;23.384;2023-04-25T06:19:08;1011.27;;;440.43;;
4616;SDS011;2321;42.704;23.384;2023-04-25T06:21:35;1013.37;;;451.60;;
4616;SDS011;2321;42.704;23.384;2023-04-25T06:24:02;1020.00;;;461.90;;
4616;SDS011;2321;42.704;23.384;2023-04-25T06:26:29;1026.60;;;472.80;;
4616;SDS011;2321;42.704;23.384;2023-04-25T06:28:56;1011.73;;;445.60;;
4616;SDS011;2321;42.704;23.384;2023-04-25T06:31:24;1029.03;;;481.67;;
4616;SDS011;2321;42.704;23.384;2023-04-25T06:33:51;1030.47;;;486.47;;
4616;SDS011;2321;42.704;23.384;2023-04-25T06:36:19;1019.03;;;471.60;;
4616;SDS011;2321;42.704;23.384;2023-04-25T06:38:50;1026.73;;;495.00;;
4616;SDS011;2321;42.704;23.384;2023-04-25T06:41:16;1033.97;;;500.93;;
4616;SDS011;2321;42.704;23.384;2023-04-25T06:43:43;1035.83;;;502.17;;
4616;SDS011;2321;42.704;23.384;2023-04-25T06:46:10;1028.27;;;484.50;;
4616;SDS011;2321;42.704;23.384;2023-04-25T06:48:38;1035.80;;;505.63;;
4616;SDS011;2321;42.704;23.384;2023-04-25T06:51:05;1026.13;;;472.67;;
4616;SDS011;2321;42.704;23.384;2023-04-25T06:53:32;1033.07;;;501.67;;
4616;SDS011;2321;42.704;23.384;2023-04-25T06:55:59;1029.50;;;508.33;;
4616;SDS011;2321;42.704;23.384;2023-04-25T06:58:26;1048.00;;;523.80;;
4616;SDS011;2321;42.704;23.384;2023-04-25T07:00:53;1037.13;;;488.87;;
4616;SDS011;2321;42.704;23.384;2023-04-25T07:03:19;1049.87;;;525.00;;
4616;SDS011;2321;42.704;23.384;2023-04-25T07:05:48;1031.57;;;491.37;;
4616;SDS011;2321;42.704;23.384;2023-04-25T07:08:15;982.67;;;499.00;;
4616;SDS011;2321;42.704;23.384;2023-04-25T07:10:42;1040.30;;;543.40;;
4616;SDS011;2321;42.704;23.384;2023-04-25T07:13:09;1043.23;;;505.87;;
4616;SDS011;2321;42.704;23.384;2023-04-25T07:15:35;1054.00;;;540.93;;
4616;SDS011;2321;42.704;23.384;2023-04-25T07:18:02;1059.70;;;537.20;;
4616;SDS011;2321;42.704;23.384;2023-04-25T07:20:29;1062.73;;;533.90;;
4616;SDS011;2321;42.704;23.384;2023-04-25T07:22:59;1060.43;;;571.37;;
4616;SDS011;2321;42.704;23.384;2023-04-25T07:25:26;1059.13;;;550.63;;
4616;SDS011;2321;42.704;23.384;2023-04-25T07:27:53;1053.50;;;526.47;;
4616;SDS011;2321;42.704;23.384;2023-04-25T07:30:19;1054.63;;;569.60;;
4616;SDS011;2321;42.704;23.384;2023-04-25T07:32:46;1061.47;;;562.17;;
4616;SDS011;2321;42.704;23.384;2023-04-25T07:35:14;1051.80;;;543.57;;
4616;SDS011;2321;42.704;23.384;2023-04-25T07:37:41;1056.63;;;528.00;;
4616;SDS011;2321;42.704;23.384;2023-04-25T07:40:09;1053.93;;;534.70;;
4616;SDS011;2321;42.704;23.384;2023-04-25T07:42:36;1056.93;;;545.40;;
4616;SDS011;2321;42.704;23.384;2023-04-25T07:45:04;1056.90;;;537.00;;
4616;SDS011;2321;42.704;23.384;2023-04-25T07:47:31;1057.80;;;539.57;;
4616;SDS011;2321;42.704;23.384;2023-04-25T07:49:58;1046.43;;;551.53;;
4616;SDS011;2321;42.704;23.384;2023-04-25T07:52:25;1027.33;;;545.67;;
4616;SDS011;2321;42.704;23.384;2023-04-25T07:54:52;1065.03;;;571.03;;
4616;SDS011;2321;42.704;23.384;2023-04-25T07:57:20;1052.23;;;565.90;;
4616;SDS011;2321;42.704;23.384;2023-04-25T07:59:47;1058.80;;;568.93;;
4616;SDS011;2321;42.704;23.384;2023-04-25T08:02:14;1052.43;;;547.27;;
4616;SDS011;2321;42.704;23.384;2023-04-25T08:04:41;1067.63;;;591.10;;
4616;SDS011;2321;42.704;23.384;2023-04-25T08:07:08;1071.80;;;588.03;;
4616;SDS011;2321;42.704;23.384;2023-04-25T08:09:35;1059.97;;;552.47;;
4616;SDS011;2321;42.704;23.384;2023-04-25T08:12:02;1074.93;;;596.77;;
4616;SDS011;2321;42.704;23.384;2023-04-25T08:14:31;1056.33;;;552.23;;
4616;SDS011;2321;42.704;23.384;2023-04-25T08:17:01;1064.83;;;580.00;;
4616;SDS011;2321;42.704;23.384;2023-04-25T08:19:28;889.40;;;533.33;;
4616;SDS011;2321;42.704;23.384;2023-04-25T08:21:55;1043.63;;;562.17;;
4616;SDS011;2321;42.704;23.384;2023-04-25T08:24:22;1039.53;;;547.30;;
4616;SDS011;2321;42.704;23.384;2023-04-25T08:26:49;1037.43;;;584.67;;
4616;SDS011;2321;42.704;23.384;2023-04-25T08:29:16;1056.30;;;619.20;;
4616;SDS011;2321;42.704;23.384;2023-04-25T08:31:44;1069.47;;;627.83;;
4616;SDS011;2321;42.704;23.384;2023-04-25T08:34:11;1089.80;;;632.10;;
4616;SDS011;2321;42.704;23.384;2023-04-25T08:36:38;1096.43;;;658.73;;
4616;SDS011;2321;42.704;23.384;2023-04-25T08:39:05;1082.20;;;629.23;;
4616;SDS011;2321;42.704;23.384;2023-04-25T08:41:32;1089.43;;;648.20;;
4616;SDS011;2321;42.704;23.384;2023-04-25T08:43:59;1087.10;;;640.93;;
4616;SDS011;2321;42.704;23.384;2023-04-25T08:46:29;1078.30;;;625.83;;
4616;SDS011;2321;42.704;23.384;2023-04-25T08:49:00;1052.00;;;591.60;;
4616;SDS011;2321;42.704;23.384;2023-04-25T08:51:28;1092.03;;;649.10;;
4616;SDS011;2321;42.704;23.384;2023-04-25T08:54:00;1071.07;;;595.83;;
4616;SDS011;2321;42.704;23.384;2023-04-25T08:56:34;1048.10;;;533.50;;
4616;SDS011;2321;42.704;23.384;2023-04-25T08:59:02;1033.03;;;520.73;;
4616;SDS011;2321;42.704;23.384;2023-04-25T09:01:28;959.40;;;506.00;;
4616;SDS011;2321;42.704;23.384;2023-04-25T09:03:56;1021.00;;;541.80;;
4616;SDS011;2321;42.704;23.384;2023-04-25T09:06:25;1048.07;;;521.23;;
4616;SDS011;2321;42.704;23.384;2023-04-25T09:08:52;1052.80;;;551.70;;
4616;SDS011;2321;42.704;23.384;2023-04-25T09:11:19;1036.33;;;514.13;;
4616;SDS011;2321;42.704;23.384;2023-04-25T09:13:46;1053.93;;;545.63;;
4616;SDS011;2321;42.704;23.384;2023-04-25T09:16:13;1018.13;;;518.60;;
4616;SDS011;2321;42.704;23.384;2023-04-25T09:18:42;1026.40;;;541.67;;
4616;SDS011;2321;42.704;23.384;2023-04-25T09:21:11;1034.03;;;570.53;;
4616;SDS011;2321;42.704;23.384;2023-04-25T09:23:39;761.50;;;516.93;;
4616;SDS011;2321;42.704;23.384;2023-04-25T09:26:06;689.17;;;514.80;;
4616;SDS011;2321;42.704;23.384;2023-04-25T09:28:33;739.80;;;555.63;;
4616;SDS011;2321;42.704;23.384;2023-04-25T09:31:01;949.57;;;603.87;;
4616;SDS011;2321;42.704;23.384;2023-04-25T09:33:28;1069.03;;;608.33;;
4616;SDS011;2321;42.704;23.384;2023-04-25T09:36:01;1065.33;;;640.90;;
4616;SDS011;2321;42.704;23.384;2023-04-25T09:38:31;1071.87;;;647.43;;
4616;SDS011;2321;42.704;23.384;2023-04-25T09:40:59;1060.97;;;618.90;;
4616;SDS011;2321;42.704;23.384;2023-04-25T09:43:27;1100.10;;;664.83;;
4616;SDS011;2321;42.704;23.384;2023-04-25T09:45:54;1085.10;;;624.00;;
4616;SDS011;2321;42.704;23.384;2023-04-25T09:48:24;1079.13;;;683.30;;
4616;SDS011;2321;42.704;23.384;2023-04-25T09:51:05;1084.43;;;631.10;;
4616;SDS011;2321;42.704;23.384;2023-04-25T09:53:35;1052.67;;;666.47;;
4616;SDS011;2321;42.704;23.384;2023-04-25T09:56:03;998.37;;;678.53;;
4616;SDS011;2321;42.704;23.384;2023-04-25T09:58:32;1103.10;;;691.63;;
4616;SDS011;2321;42.704;23.384;2023-04-25T10:01:00;1020.73;;;615.07;;
4616;SDS011;2321;42.704;23.384;2023-04-25T10:03:29;1007.03;;;619.10;;
4616;SDS011;2321;42.704;23.384;2023-04-25T10:05:57;952.13;;;685.43;;
4616;SDS011;2321;42.704;23.384;2023-04-25T10:08:26;994.83;;;669.10;;
4616;SDS011;2321;42.704;23.384;2023-04-25T10:11:00;959.53;;;622.50;;
4616;SDS011;2321;42.704;23.384;2023-04-25T10:13:28;1013.17;;;709.17;;
4616;SDS011;2321;42.704;23.384;2023-04-25T10:15:56;980.27;;;709.93;;
4616;SDS011;2321;42.704;23.384;2023-04-25T10:18:24;941.83;;;657.67;;
4616;SDS011;2321;42.704;23.384;2023-04-25T10:20:51;929.10;;;609.53;;
4616;SDS011;2321;42.704;23.384;2023-04-25T10:23:20;957.00;;;702.33;;
4616;SDS011;2321;42.704;23.384;2023-04-25T10:25:47;992.73;;;616.37;;
4616;SDS011;2321;42.704;23.384;2023-04-25T10:28:16;1084.63;;;726.60;;
4616;SDS011;2321;42.704;23.384;2023-04-25T10:30:56;1078.93;;;644.37;;
4616;SDS011;2321;42.704;23.384;2023-04-25T10:33:29;1117.73;;;678.83;;
4616;SDS011;2321;42.704;23.384;2023-04-25T10:35:58;1109.87;;;691.13;;
4616;SDS011;2321;42.704;23.384;2023-04-25T10:38:34;1069.07;;;626.67;;
4616;SDS011;2321;42.704;23.384;2023-04-25T10:41:03;1107.00;;;684.87;;
4616;SDS011;2321;42.704;23.384;2023-04-25T10:43:35;1080.23;;;627.07;;
4616;SDS011;2321;42.704;23.384;2023-04-25T10:46:12;1091.43;;;608.13;;
4616;SDS011;2321;42.704;23.384;2023-04-25T10:48:44;1061.53;;;537.53;;
4616;SDS011;2321;42.704;23.384;2023-04-25T10:51:16;1067.20;;;538.17;;
4616;SDS011;2321;42.704;23.384;2023-04-25T10:53:44;1056.67;;;511.63;;
4616;SDS011;2321;42.704;23.384;2023-04-25T10:56:11;1049.37;;;500.50;;
4616;SDS011;2321;42.704;23.384;2023-04-25T10:58:44;1058.77;;;514.47;;
4616;SDS011;2321;42.704;23.384;2023-04-25T11:01:12;1047.87;;;502.07;;
4616;SDS011;2321;42.704;23.384;2023-04-25T11:03:42;1064.03;;;534.33;;
4616;SDS011;2321;42.704;23.384;2023-04-25T11:06:12;1063.27;;;530.43;;
4616;SDS011;2321;42.704;23.384;2023-04-25T11:08:48;1074.83;;;572.07;;
4616;SDS011;2321;42.704;23.384;2023-04-25T11:11:16;879.13;;;521.93;;
4616;SDS011;2321;42.704;23.384;2023-04-25T11:13:46;938.30;;;528.67;;
4616;SDS011;2321;42.704;23.384;2023-04-25T11:16:14;1060.20;;;593.33;;
4616;SDS011;2321;42.704;23.384;2023-04-25T11:18:41;1097.70;;;622.00;;
4616;SDS011;2321;42.704;23.384;2023-04-25T11:21:08;1075.57;;;580.50;;
4616;SDS011;2321;42.704;23.384;2023-04-25T11:23:35;1053.63;;;587.60;;
4616;SDS011;2321;42.704;23.384;2023-04-25T11:26:02;1085.50;;;624.40;;
4616;SDS011;2321;42.704;23.384;2023-04-25T11:28:30;1087.53;;;612.33;;
4616;SDS011;2321;42.704;23.384;2023-04-25T11:30:58;1128.97;;;694.50;;
4616;SDS011;2321;42.704;23.384;2023-04-25T11:33:25;1076.07;;;684.30;;
4616;SDS011;2321;42.704;23.384;2023-04-25T11:35:53;892.03;;;609.23;;
4616;SDS011;2321;42.704;23.384;2023-04-25T11:38:21;925.73;;;680.67;;
4616;SDS011;2321;42.704;23.384;2023-04-25T11:40:49;857.47;;;622.73;;
4616;SDS011;2321;42.704;23.384;2023-04-25T11:43:17;885.73;;;633.67;;
4616;SDS011;2321;42.704;23.384;2023-04-25T11:45:46;759.47;;;611.67;;
4616;SDS011;2321;42.704;23.384;2023-04-25T11:48:15;728.30;;;555.40;;
4616;SDS011;2321;42.704;23.384;2023-04-25T11:50:42;731.77;;;587.93;;
4616;SDS011;2321;42.704;23.384;2023-04-25T11:53:10;689.90;;;553.00;;
4616;SDS011;2321;42.704;23.384;2023-04-25T11:55:37;903.77;;;598.93;;
4616;SDS011;2321;42.704;23.384;2023-04-25T11:58:05;776.13;;;542.97;;
4616;SDS011;2321;42.704;23.384;2023-04-25T12:00:33;754.33;;;585.43;;
4616;SDS011;2321;42.704;23.384;2023-04-25T12:03:00;729.60;;;555.30;;
4616;SDS011;2321;42.704;23.384;2023-04-25T12:05:29;728.90;;;561.03;;
4616;SDS011;2321;42.704;23.384;2023-04-25T12:07:58;912.90;;;599.03;;
4616;SDS011;2321;42.704;23.384;2023-04-25T12:10:37;1105.90;;;676.23;;
4616;SDS011;2321;42.704;23.384;2023-04-25T12:13:17;871.57;;;612.00;;
4616;SDS011;2321;42.704;23.384;2023-04-25T12:15:45;1051.93;;;661.67;;
4616;SDS011;2321;42.704;23.384;2023-04-25T12:18:12;784.20;;;617.67;;
4616;SDS011;2321;42.704;23.384;2023-04-25T12:20:41;805.07;;;662.43;;
4616;SDS011;2321;42.704;23.384;2023-04-25T12:23:08;778.37;;;635.60;;
4616;SDS011;2321;42.704;23.384;2023-04-25T12:25:36;884.03;;;662.27;;
4616;SDS011;2321;42.704;23.384;2023-04-25T12:28:11;1119.97;;;744.23;;
4616;SDS011;2321;42.704;23.384;2023-04-25T12:33:21;831.47;;;667.43;;
4616;SDS011;2321;42.704;23.384;2023-04-25T12:35:49;886.07;;;640.13;;
4616;SDS011;2321;42.704;23.384;2023-04-25T12:38:23;1018.50;;;667.60;;
4616;SDS011;2321;42.704;23.384;2023-04-25T12:40:51;926.03;;;591.37;;
4616;SDS011;2321;42.704;23.384;2023-04-25T12:43:18;867.90;;;549.43;;
4616;SDS011;2321;42.704;23.384;2023-04-25T12:45:44;684.03;;;483.07;;
4616;SDS011;2321;42.704;23.384;2023-04-25T12:48:13;624.77;;;447.77;;
4616;SDS011;2321;42.704;23.384;2023-04-25T12:50:40;669.13;;;428.57;;
4616;SDS011;2321;42.704;23.384;2023-04-25T12:53:08;567.90;;;410.63;;
4616;SDS011;2321;42.704;23.384;2023-04-25T12:55:36;540.57;;;371.87;;
4616;SDS011;2321;42.704;23.384;2023-04-25T12:58:03;555.63;;;388.93;;
4616;SDS011;2321;42.704;23.384;2023-04-25T13:00:30;559.77;;;360.77;;
4616;SDS011;2321;42.704;23.384;2023-04-25T13:02:56;568.57;;;379.03;;
4616;SDS011;2321;42.704;23.384;2023-04-25T13:05:24;523.07;;;434.47;;
4616;SDS011;2321;42.704;23.384;2023-04-25T13:07:51;557.67;;;421.83;;
4616;SDS011;2321;42.704;23.384;2023-04-25T13:10:19;541.47;;;371.10;;
4616;SDS011;2321;42.704;23.384;2023-04-25T13:12:46;525.80;;;382.23;;
4616;SDS011;2321;42.704;23.384;2023-04-25T13:15:13;616.27;;;426.37;;
4616;SDS011;2321;42.704;23.384;2023-04-25T13:17:40;585.97;;;391.70;;
4616;SDS011;2321;42.704;23.384;2023-04-25T13:20:08;578.10;;;384.20;;
4616;SDS011;2321;42.704;23.384;2023-04-25T13:22:35;645.47;;;401.93;;
4616;SDS011;2321;42.704;23.384;2023-04-25T13:25:04;686.97;;;403.17;;
4616;SDS011;2321;42.704;23.384;2023-04-25T13:27:33;641.40;;;422.43;;
4616;SDS011;2321;42.704;23.384;2023-04-25T13:30:01;661.23;;;421.57;;
4616;SDS011;2321;42.704;23.384;2023-04-25T13:32:32;699.77;;;498.47;;
4616;SDS011;2321;42.704;23.384;2023-04-25T13:35:01;685.03;;;433.90;;
4616;SDS011;2321;42.704;23.384;2023-04-25T13:37:28;770.50;;;525.77;;
4616;SDS011;2321;42.704;23.384;2023-04-25T13:39:58;692.40;;;428.80;;
4616;SDS011;2321;42.704;23.384;2023-04-25T13:42:25;833.57;;;459.90;;
4616;SDS011;2321;42.704;23.384;2023-04-25T13:44:53;817.07;;;461.00;;
4616;SDS011;2321;42.704;23.384;2023-04-25T13:47:20;707.07;;;484.63;;
4616;SDS011;2321;42.704;23.384;2023-04-25T13:49:48;665.90;;;486.40;;
4616;SDS011;2321;42.704;23.384;2023-04-25T13:52:15;760.47;;;541.33;;
4616;SDS011;2321;42.704;23.384;2023-04-25T13:54:42;751.53;;;482.40;;
4616;SDS011;2321;42.704;23.384;2023-04-25T13:57:09;547.30;;;434.90;;
4616;SDS011;2321;42.704;23.384;2023-04-25T13:59:36;874.17;;;471.33;;
4616;SDS011;2321;42.704;23.384;2023-04-25T14:02:04;778.17;;;426.20;;
4616;SDS011;2321;42.704;23.384;2023-04-25T14:04:31;429.10;;;331.33;;
4616;SDS011;2321;42.704;23.384;2023-04-25T14:06:58;388.33;;;347.70;;
4616;SDS011;2321;42.704;23.384;2023-04-25T14:09:25;247.87;;;223.27;;